createdAt,value
2023-02-02T00:02:02.695Z,32.38
2023-02-02T00:04:37.643Z,37.80
2023-02-02T00:07:11.143Z,44.33
2023-02-02T00:09:46.348Z,40.88
2023-02-02T00:12:19.848Z,26.10
2023-02-02T00:14:53.663Z,37.63
2023-02-02T00:17:27.242Z,31.88
2023-02-02T00:20:01.040Z,42.50
2023-02-02T00:22:35.330Z,35.88
2023-02-02T00:25:11.327Z,36.47
2023-02-02T00:27:45.020Z,30.40
2023-02-02T00:30:19.016Z,39.88
2023-02-02T00:32:53.192Z,30.02
2023-02-02T00:35:27.103Z,31.90
2023-02-02T00:38:00.603Z,28.45
2023-02-02T00:40:35.738Z,33.70
2023-02-02T00:43:10.739Z,35.72
2023-02-02T00:45:43.680Z,39.00
2023-02-02T00:48:17.225Z,34.42
2023-02-02T00:50:50.981Z,31.80
2023-02-02T00:53:24.626Z,33.20
2023-02-02T00:55:59.794Z,30.40
2023-02-02T00:58:33.314Z,36.88
2023-02-02T01:01:07.264Z,34.83
2023-02-02T01:03:40.880Z,34.13
2023-02-02T01:06:14.628Z,42.22
2023-02-02T01:08:48.307Z,28.65
2023-02-02T01:11:23.611Z,42.85
2023-02-02T01:13:57.215Z,44.53
2023-02-02T01:16:31.112Z,22.67
2023-02-02T01:19:04.999Z,38.30
2023-02-02T01:21:38.833Z,22.40
2023-02-02T01:24:12.580Z,36.60
2023-02-02T01:26:47.763Z,25.42
2023-02-02T01:29:21.361Z,32.35
2023-02-02T01:31:55.206Z,40.15
2023-02-02T01:34:28.929Z,29.45
2023-02-02T01:37:02.827Z,35.00
2023-02-02T01:39:36.912Z,28.40
2023-02-02T01:42:15.894Z,39.15
2023-02-02T01:45:08.288Z,30.52
2023-02-02T01:47:48.928Z,27.38
2023-02-02T01:50:26.391Z,35.17
2023-02-02T01:53:03.183Z,35.83
2023-02-02T01:55:40.774Z,35.83
2023-02-02T01:58:19.246Z,32.33
2023-02-02T02:00:53.956Z,31.02
2023-02-02T02:03:31.981Z,27.08
2023-02-02T02:06:09.688Z,25.00
2023-02-02T02:08:52.185Z,26.15
2023-02-02T02:11:26.148Z,23.55
2023-02-02T02:14:32.821Z,13.82
2023-02-02T02:17:21.619Z,19.48
2023-02-02T02:20:42.770Z,15.02
2023-02-02T02:24:16.443Z,15.43
2023-02-02T02:27:15.537Z,22.90
2023-02-02T02:32:42.065Z,20.60
2023-02-02T02:35:28.429Z,24.30
2023-02-02T02:38:10.653Z,30.90
2023-02-02T02:40:49.951Z,31.48
2023-02-02T02:43:28.585Z,30.38
2023-02-02T02:46:03.663Z,24.35
2023-02-02T02:48:38.863Z,23.80
2023-02-02T02:51:50.948Z,36.15
2023-02-02T02:54:30.371Z,28.42
2023-02-02T02:57:16.524Z,27.27
2023-02-02T02:59:56.887Z,23.13
2023-02-02T03:02:41.383Z,27.65
2023-02-02T03:05:32.801Z,26.67
2023-02-02T03:08:12.384Z,37.33
2023-02-02T03:10:47.909Z,21.95
2023-02-02T03:13:21.606Z,27.60
2023-02-02T03:15:56.064Z,35.22
2023-02-02T03:18:32.031Z,28.27
2023-02-02T03:21:07.493Z,29.38
2023-02-02T03:23:41.056Z,21.92
2023-02-02T03:26:15.094Z,29.75
2023-02-02T03:28:49.335Z,24.17
2023-02-02T03:31:23.272Z,15.07
2023-02-02T03:33:58.079Z,19.23
2023-02-02T03:36:33.291Z,22.10
2023-02-02T03:39:06.889Z,23.85
2023-02-02T03:41:40.775Z,22.15
2023-02-02T03:44:14.326Z,18.80
2023-02-02T03:46:48.168Z,28.85
2023-02-02T03:49:22.240Z,26.23
2023-02-02T03:51:57.318Z,17.98
2023-02-02T03:54:30.922Z,34.13
2023-02-02T03:57:04.844Z,21.67
2023-02-02T03:59:38.488Z,31.73
2023-02-02T04:02:12.325Z,28.45
2023-02-02T04:04:45.947Z,25.55
2023-02-02T04:07:21.034Z,15.43
2023-02-02T04:09:54.706Z,16.15
2023-02-02T04:12:28.417Z,18.42
2023-02-02T04:15:02.051Z,14.27
2023-02-02T04:17:36.337Z,16.92
2023-02-02T04:20:11.421Z,16.73
2023-02-02T04:22:46.765Z,14.98
2023-02-02T04:25:20.390Z,17.27
2023-02-02T04:27:54.162Z,16.17
2023-02-02T04:30:27.703Z,18.48
2023-02-02T04:33:01.486Z,18.63
2023-02-02T04:35:35.211Z,16.77
2023-02-02T04:38:10.552Z,13.75
2023-02-02T04:40:46.275Z,13.18
2023-02-02T04:43:20.264Z,7.78
2023-02-02T04:45:57.401Z,12.40
2023-02-02T04:48:31.585Z,11.65
2023-02-02T04:51:07.587Z,20.88
2023-02-02T04:53:43.908Z,15.80
2023-02-02T04:56:19.249Z,18.63
2023-02-02T04:58:55.809Z,20.23
2023-02-02T05:01:30.786Z,19.48
2023-02-02T05:04:04.826Z,23.92
2023-02-02T05:06:38.566Z,26.05
2023-02-02T05:09:15.000Z,12.77
2023-02-02T05:11:48.743Z,24.92
2023-02-02T05:14:22.681Z,32.20
2023-02-02T05:16:56.348Z,17.67
2023-02-02T05:19:30.194Z,25.08
2023-02-02T05:22:03.884Z,17.25
2023-02-02T05:24:39.053Z,17.45
2023-02-02T05:27:12.649Z,22.23
2023-02-02T05:29:48.443Z,24.75
2023-02-02T05:32:22.040Z,16.95
2023-02-02T05:34:55.836Z,16.02
2023-02-02T05:37:29.551Z,13.43
2023-02-02T05:40:06.123Z,13.73
2023-02-02T05:42:39.950Z,15.27
2023-02-02T05:45:13.859Z,14.30
2023-02-02T05:47:47.612Z,22.77
2023-02-02T05:50:21.437Z,18.83
2023-02-02T05:52:55.029Z,27.42
2023-02-02T05:55:30.144Z,25.27
2023-02-02T05:58:03.800Z,31.10
2023-02-02T06:00:37.859Z,26.10
2023-02-02T06:03:13.059Z,20.80
2023-02-02T06:05:46.985Z,27.42
2023-02-02T06:08:20.669Z,38.60
2023-02-02T06:10:55.957Z,30.27
2023-02-02T06:13:29.725Z,22.30
2023-02-02T06:16:03.581Z,54.13
2023-02-02T06:18:37.881Z,33.20
2023-02-02T06:21:12.604Z,32.75
2023-02-02T06:23:46.711Z,34.50
2023-02-02T06:26:21.896Z,29.73
2023-02-02T06:28:56.253Z,27.27
2023-02-02T06:31:29.990Z,33.67
2023-02-02T06:34:03.809Z,30.05
2023-02-02T06:36:37.628Z,26.60
2023-02-02T06:39:11.212Z,35.58
2023-02-02T06:41:48.361Z,31.63
2023-02-02T06:44:21.893Z,38.97
2023-02-02T06:46:55.551Z,28.92
2023-02-02T06:49:29.298Z,42.15
2023-02-02T06:52:03.166Z,33.72
2023-02-02T06:54:36.795Z,30.85
2023-02-02T06:57:11.876Z,32.88
2023-02-02T06:59:45.477Z,24.65
2023-02-02T07:02:19.360Z,39.40
2023-02-02T07:04:53.185Z,33.65
2023-02-02T07:07:27.099Z,20.05
2023-02-02T07:10:00.718Z,22.05
2023-02-02T07:12:35.961Z,31.45
2023-02-02T07:15:10.863Z,22.67
2023-02-02T07:17:44.717Z,32.28
2023-02-02T07:20:18.829Z,32.85
2023-02-02T07:22:52.692Z,30.40
2023-02-02T07:25:26.594Z,19.48
2023-02-02T07:28:01.869Z,19.02
2023-02-02T07:30:35.578Z,17.10
2023-02-02T07:33:09.429Z,24.67
2023-02-02T07:35:43.152Z,19.15
2023-02-02T07:38:17.127Z,24.63
2023-02-02T07:40:50.777Z,14.30
2023-02-02T07:43:26.367Z,23.27
2023-02-02T07:46:02.913Z,30.23
2023-02-02T07:48:37.736Z,31.20
2023-02-02T07:51:14.746Z,22.65
2023-02-02T07:53:50.347Z,31.65
2023-02-02T07:56:26.079Z,26.02
2023-02-02T07:59:01.617Z,23.95
2023-02-02T08:01:35.211Z,25.55
2023-02-02T08:04:09.063Z,31.45
2023-02-02T08:06:42.730Z,21.35
2023-02-02T08:09:16.508Z,26.63
2023-02-02T08:11:50.207Z,29.02
2023-02-02T08:14:25.367Z,26.58
2023-02-02T08:16:58.893Z,41.63
2023-02-02T08:19:32.696Z,29.33
2023-02-02T08:22:06.413Z,28.38
2023-02-02T08:24:42.446Z,34.25
2023-02-02T08:27:17.301Z,35.55
2023-02-02T08:29:52.727Z,28.38
2023-02-02T08:32:26.618Z,19.77
2023-02-02T08:35:00.498Z,27.75
2023-02-02T08:37:34.187Z,33.33
2023-02-02T08:40:18.656Z,19.98
2023-02-02T08:42:56.566Z,26.33
2023-02-02T08:46:01.276Z,29.73
2023-02-02T08:48:25.626Z,25.52
2023-02-02T08:51:00.280Z,20.02
2023-02-02T08:53:34.344Z,23.15
2023-02-02T08:56:10.995Z,24.85
2023-02-02T08:58:47.094Z,21.25
2023-02-02T09:01:25.156Z,19.50
2023-02-02T09:04:01.710Z,22.58
2023-02-02T09:06:37.396Z,22.20
2023-02-02T09:09:12.732Z,21.92
2023-02-02T09:11:46.646Z,24.40
2023-02-02T09:14:20.613Z,23.63
2023-02-02T09:16:55.945Z,32.20
2023-02-02T09:19:29.605Z,21.73
2023-02-02T09:22:03.361Z,19.52
2023-02-02T09:24:36.984Z,16.25
2023-02-02T09:27:11.240Z,22.05
2023-02-02T09:29:44.853Z,21.88
2023-02-02T09:32:19.969Z,23.60
2023-02-02T09:34:53.611Z,20.40
2023-02-02T09:37:30.606Z,17.88
2023-02-02T09:40:08.256Z,20.52
2023-02-02T09:43:04.447Z,20.38
2023-02-02T09:45:48.851Z,20.63
2023-02-02T09:48:38.020Z,16.10
2023-02-02T09:51:17.433Z,17.70
2023-02-02T09:53:56.556Z,24.02
2023-02-02T09:56:35.622Z,35.92
2023-02-02T09:59:21.834Z,21.33
2023-02-02T10:01:58.878Z,26.20
2023-02-02T10:04:37.273Z,21.30
2023-02-02T10:07:15.139Z,19.98
2023-02-02T10:09:55.513Z,20.23
2023-02-02T10:12:37.093Z,14.93
2023-02-02T10:15:20.453Z,22.85
2023-02-02T10:18:00.234Z,19.95
2023-02-02T10:20:43.704Z,19.73
2023-02-02T10:23:26.081Z,16.30
2023-02-02T10:26:09.606Z,22.95
2023-02-02T10:28:50.469Z,17.67
2023-02-02T10:31:42.440Z,20.83
2023-02-02T10:34:23.223Z,15.95
2023-02-02T10:37:10.318Z,12.15
2023-02-02T10:39:58.291Z,25.75
2023-02-02T10:42:41.072Z,18.52
2023-02-02T10:45:18.807Z,18.13
2023-02-02T10:47:52.721Z,23.33
2023-02-02T10:50:28.061Z,18.95
2023-02-02T10:53:12.409Z,14.50
2023-02-02T10:55:54.712Z,10.43
2023-02-02T10:58:31.252Z,16.98
2023-02-02T11:01:07.953Z,14.50
2023-02-02T11:03:41.813Z,17.23
2023-02-02T11:06:34.484Z,19.38
2023-02-02T11:09:15.092Z,12.75
2023-02-02T11:11:52.834Z,19.13
2023-02-02T11:14:44.581Z,16.30
2023-02-02T11:17:21.642Z,16.80
2023-02-02T11:19:56.586Z,14.35
2023-02-02T11:22:34.047Z,9.57
2023-02-02T11:25:27.363Z,12.52
2023-02-02T11:28:06.429Z,11.10
2023-02-02T11:30:41.567Z,14.82
2023-02-02T11:33:28.427Z,11.68
2023-02-02T11:36:03.939Z,13.00
2023-02-02T11:38:37.467Z,16.73
2023-02-02T11:41:15.376Z,17.92
2023-02-02T11:43:52.397Z,11.50
2023-02-02T11:46:32.939Z,9.27
2023-02-02T11:49:16.588Z,18.73
2023-02-02T11:51:59.076Z,14.65
2023-02-02T11:54:34.583Z,16.17
2023-02-02T11:57:11.419Z,12.90
2023-02-02T11:59:46.568Z,11.55
2023-02-02T12:02:31.220Z,16.05
2023-02-02T12:05:32.853Z,16.27
2023-02-02T12:08:09.134Z,17.30
2023-02-02T12:10:48.711Z,11.05
2023-02-02T12:34:29.040Z,11.38
2023-02-02T12:37:13.634Z,14.60
2023-02-02T12:39:59.014Z,6.10
2023-02-02T12:42:48.924Z,13.95
2023-02-02T12:45:38.955Z,11.38
2023-02-02T12:48:27.855Z,10.57
2023-02-02T12:51:17.358Z,13.88
2023-02-02T12:54:33.484Z,9.82
2023-02-02T12:57:16.814Z,8.77
2023-02-02T13:00:14.973Z,9.68
2023-02-02T13:03:06.168Z,10.05
2023-02-02T13:05:59.873Z,12.77
2023-02-02T13:08:43.035Z,5.15
2023-02-02T13:11:30.917Z,11.55
2023-02-02T13:14:10.774Z,11.05
2023-02-02T13:16:49.876Z,15.63
2023-02-02T13:19:30.006Z,7.65
2023-02-02T13:22:07.776Z,14.45
2023-02-02T13:24:45.998Z,14.75
2023-02-02T13:27:22.592Z,11.18
2023-02-02T13:30:02.826Z,9.45
2023-02-02T13:32:39.935Z,9.90
2023-02-02T13:35:18.867Z,11.80
2023-02-02T13:37:57.887Z,9.25
2023-02-02T13:40:37.635Z,6.88
2023-02-02T13:43:26.589Z,9.35
2023-02-02T13:46:09.289Z,13.05
2023-02-02T13:48:53.784Z,6.18
2023-02-02T13:51:44.907Z,9.10
2023-02-02T13:54:45.833Z,12.18
2023-02-02T13:57:33.000Z,8.60
2023-02-02T14:00:16.917Z,11.00
2023-02-02T14:02:53.778Z,13.70
2023-02-02T14:05:29.882Z,13.32
2023-02-02T14:08:07.360Z,10.70
2023-02-02T14:10:45.447Z,7.95
2023-02-02T14:13:40.986Z,8.13
2023-02-02T14:16:23.030Z,9.20
2023-02-02T14:18:58.937Z,12.52
2023-02-02T14:22:00.847Z,19.73
2023-02-02T14:24:46.884Z,6.80
2023-02-02T14:28:02.378Z,10.35
2023-02-02T14:30:39.452Z,7.20
2023-02-02T14:33:28.718Z,10.70
2023-02-02T14:36:05.235Z,11.15
2023-02-02T14:39:04.288Z,8.25
2023-02-02T14:42:16.621Z,8.75
2023-02-02T14:45:15.764Z,8.38
2023-02-02T14:47:54.354Z,10.93
2023-02-02T14:50:36.780Z,6.68
2023-02-02T14:53:20.130Z,6.43
2023-02-02T14:55:59.209Z,10.80
2023-02-02T15:01:14.495Z,5.28
2023-02-02T15:03:52.964Z,6.55
2023-02-02T15:06:31.509Z,8.07
2023-02-02T15:09:27.821Z,11.15
2023-02-02T15:12:27.862Z,8.73
2023-02-02T15:15:13.878Z,13.93
2023-02-02T15:18:03.795Z,8.98
2023-02-02T15:20:45.298Z,8.40
2023-02-02T15:23:28.436Z,6.22
2023-02-02T15:26:07.801Z,9.55
2023-02-02T15:28:46.381Z,7.93
2023-02-02T15:31:28.694Z,28.73
2023-02-02T15:34:10.536Z,10.48
2023-02-02T15:36:49.338Z,14.75
2023-02-02T15:42:21.724Z,9.30
2023-02-02T15:44:55.919Z,6.95
2023-02-02T15:47:35.024Z,15.10
2023-02-02T15:50:20.031Z,10.15
2023-02-02T15:52:56.439Z,12.88
2023-02-02T15:55:34.232Z,15.95
2023-02-02T15:58:23.824Z,14.05
2023-02-02T16:01:00.864Z,13.90
2023-02-02T16:03:46.502Z,22.42
2023-02-02T16:06:21.099Z,15.65
2023-02-02T16:08:56.163Z,13.20
2023-02-02T16:11:31.006Z,18.88
2023-02-02T16:14:06.706Z,15.57
2023-02-02T16:16:41.115Z,11.48
2023-02-02T16:19:17.532Z,14.38
2023-02-02T16:21:55.366Z,11.80
2023-02-02T16:24:32.923Z,12.20
2023-02-02T16:27:10.144Z,17.67
2023-02-02T16:29:44.446Z,11.85
2023-02-02T16:32:28.073Z,9.70
2023-02-02T16:35:05.748Z,11.77
2023-02-02T16:37:39.583Z,15.07
2023-02-02T16:40:29.045Z,15.65
2023-02-02T16:43:07.363Z,16.48
2023-02-02T16:45:46.498Z,11.65
2023-02-02T16:48:33.165Z,11.35
2023-02-02T16:51:11.405Z,12.70
2023-02-02T16:53:48.245Z,14.20
2023-02-02T16:56:30.017Z,6.63
2023-02-02T16:59:07.562Z,19.95
2023-02-02T17:01:45.112Z,11.90
2023-02-02T17:04:23.072Z,14.30
2023-02-02T17:06:59.342Z,11.13
2023-02-02T17:09:37.366Z,10.88
2023-02-02T17:12:33.663Z,11.68
2023-02-02T17:15:28.800Z,13.00
2023-02-02T17:18:03.975Z,13.70
2023-02-02T17:20:40.154Z,14.93
2023-02-02T17:23:17.774Z,11.40
2023-02-02T17:25:52.236Z,18.55
2023-02-02T17:28:29.623Z,32.50
2023-02-02T17:31:07.207Z,16.58
2023-02-02T17:33:43.355Z,19.50
2023-02-02T17:36:17.184Z,22.58
2023-02-02T17:38:50.921Z,17.63
2023-02-02T17:41:24.777Z,23.27
2023-02-02T17:43:59.724Z,25.15
2023-02-02T17:46:35.073Z,18.60
2023-02-02T17:49:08.835Z,15.77
2023-02-02T17:51:43.465Z,14.65
2023-02-02T17:54:17.852Z,14.43
2023-02-02T17:56:51.627Z,11.57
2023-02-02T17:59:26.948Z,12.18
2023-02-02T18:02:01.047Z,19.70
2023-02-02T18:04:36.802Z,22.38
2023-02-02T18:07:11.198Z,16.40
2023-02-02T18:09:44.699Z,16.88
2023-02-02T18:12:19.658Z,20.92
2023-02-02T18:14:54.730Z,22.20
2023-02-02T18:17:28.454Z,28.55
2023-02-02T18:20:02.057Z,32.50
2023-02-02T18:22:35.911Z,21.48
2023-02-02T18:25:09.799Z,17.42
2023-02-02T18:27:43.845Z,32.22
2023-02-02T18:30:19.190Z,21.00
2023-02-02T18:32:53.521Z,20.35
2023-02-02T18:35:28.449Z,16.85
2023-02-02T18:38:02.432Z,13.40
2023-02-02T18:40:36.003Z,28.70
2023-02-02T18:43:09.882Z,22.40
2023-02-02T18:45:44.959Z,22.60
2023-02-02T18:48:19.846Z,18.10
2023-02-02T18:50:53.427Z,17.92
2023-02-02T18:53:27.525Z,24.33
2023-02-02T18:56:05.509Z,19.92
2023-02-02T18:58:39.923Z,22.30
2023-02-02T19:01:17.186Z,17.00
2023-02-02T19:03:52.560Z,17.35
2023-02-02T19:06:44.221Z,21.10
2023-02-02T19:09:18.447Z,23.45
2023-02-02T19:11:54.842Z,19.88
2023-02-02T19:14:32.271Z,23.23
2023-02-02T19:17:21.235Z,22.90
2023-02-02T19:20:00.998Z,20.08
2023-02-02T19:22:34.787Z,21.33
2023-02-02T19:25:13.812Z,23.60
2023-02-02T19:27:47.516Z,21.27
2023-02-02T19:30:24.510Z,15.90
2023-02-02T19:32:59.763Z,20.73
2023-02-02T19:35:33.770Z,17.33
2023-02-02T19:38:13.092Z,20.20
2023-02-02T19:40:47.329Z,18.25
2023-02-02T19:43:26.754Z,17.88
2023-02-02T19:46:01.268Z,20.35
2023-02-02T19:48:39.838Z,18.88
2023-02-02T19:51:41.708Z,21.25
2023-02-02T19:54:29.500Z,26.40
2023-02-02T19:57:18.181Z,25.52
2023-02-02T19:59:53.365Z,32.80
2023-02-02T20:02:57.002Z,17.63
2023-02-02T20:05:35.725Z,19.52
2023-02-02T20:08:24.177Z,21.42
2023-02-02T20:11:01.564Z,22.63
2023-02-02T20:13:39.842Z,20.92
2023-02-02T20:16:19.112Z,26.40
2023-02-02T20:18:55.073Z,17.23
2023-02-02T20:21:35.589Z,18.98
2023-02-02T20:24:18.569Z,27.48
2023-02-02T20:26:53.444Z,25.13
2023-02-02T20:29:31.133Z,28.60
2023-02-02T20:32:06.026Z,19.40
2023-02-02T20:34:44.680Z,20.42
2023-02-02T20:37:25.128Z,25.45
2023-02-02T20:40:01.223Z,25.23
2023-02-02T20:42:35.287Z,21.65
2023-02-02T20:45:09.062Z,22.85
2023-02-02T20:47:42.685Z,22.40
2023-02-02T20:50:20.461Z,15.98
2023-02-02T20:52:55.777Z,20.88
2023-02-02T20:55:30.718Z,17.10
2023-02-02T20:58:05.177Z,21.58
2023-02-02T21:00:39.597Z,17.75
2023-02-02T21:03:14.159Z,15.15
2023-02-02T21:05:48.021Z,22.67
2023-02-02T21:08:23.038Z,17.25
2023-02-02T21:10:56.926Z,24.52
2023-02-02T21:13:31.016Z,18.73
2023-02-02T21:16:05.306Z,13.82
2023-02-02T21:18:39.077Z,21.17
2023-02-02T21:21:14.123Z,22.30
2023-02-02T21:23:51.305Z,23.35
2023-02-02T21:26:30.009Z,16.17
2023-02-02T21:29:03.740Z,17.25
2023-02-02T21:31:40.152Z,16.67
2023-02-02T21:34:13.761Z,17.75
2023-02-02T21:36:49.698Z,24.55
2023-02-02T21:39:28.598Z,25.27
2023-02-02T21:42:13.782Z,18.38
2023-02-02T21:44:53.595Z,15.48
2023-02-02T21:47:30.641Z,20.92
2023-02-02T21:50:15.132Z,22.10
2023-02-02T21:52:48.949Z,14.38
2023-02-02T21:55:36.739Z,22.48
2023-02-02T21:58:19.066Z,19.23
2023-02-02T22:00:53.460Z,16.92
2023-02-02T22:03:32.926Z,20.38
2023-02-02T22:08:55.710Z,18.50
2023-02-02T22:11:37.008Z,19.23
2023-02-02T22:14:19.120Z,15.15
2023-02-02T22:16:54.503Z,16.50
2023-02-02T22:19:32.925Z,12.57
2023-02-02T22:22:17.861Z,20.90
2023-02-02T22:24:58.879Z,18.50
2023-02-02T22:27:41.556Z,13.90
2023-02-02T22:30:28.965Z,12.23
2023-02-02T22:33:02.983Z,14.15
2023-02-02T22:35:37.403Z,15.85
2023-02-02T22:38:11.638Z,16.45
2023-02-02T22:40:45.653Z,15.38
2023-02-02T22:43:21.786Z,11.52
2023-02-02T22:45:55.718Z,17.75
2023-02-02T22:48:29.668Z,13.40
2023-02-02T22:51:03.480Z,19.65
2023-02-02T22:53:37.067Z,12.90
2023-02-02T22:56:10.793Z,10.88
2023-02-02T22:58:45.865Z,15.60
2023-02-02T23:01:19.838Z,11.85
2023-02-02T23:03:53.533Z,16.30
2023-02-02T23:06:27.782Z,15.55
2023-02-02T23:09:01.500Z,12.10
2023-02-02T23:11:35.695Z,10.38
2023-02-02T23:14:10.709Z,6.95
2023-02-02T23:16:44.545Z,9.38
2023-02-02T23:19:18.171Z,13.60
2023-02-02T23:21:51.957Z,10.23
2023-02-02T23:24:25.975Z,9.32
2023-02-02T23:26:59.753Z,12.52
2023-02-02T23:29:34.738Z,14.15
2023-02-02T23:32:08.824Z,9.30
2023-02-02T23:34:42.582Z,9.65
2023-02-02T23:37:16.646Z,8.13
2023-02-02T23:39:50.308Z,10.27
2023-02-02T23:42:25.878Z,8.70
2023-02-02T23:45:01.448Z,11.45
2023-02-02T23:47:36.002Z,10.07
2023-02-02T23:50:10.945Z,7.75
2023-02-02T23:52:44.839Z,10.13
2023-02-02T23:55:18.431Z,8.93
2023-02-02T23:57:52.274Z,8.10
